LATI/TIA METAR and TAF weather

Enter ICAO airport designator
Station Type Date Time Source
LATI METAR 2019/04/25 17:50 UTC NOAA

LATI 251750Z 36005KT CAVOK 19/12 Q1021 NOSIG


Station Type Date Time Source
LATI Decoded METAR 2019/04/25 17:50 UTC NOAA

Tirana, Albania (LATI) 41-20N 019-47E 90M
Apr 25, 2019 - 01:50 PM EDT / 2019.04.25 1750 UTC
Wind: from the N (360 degrees) at 6 MPH (5 KT):0
Visibility: greater than 7 mile(s):0
Temperature: 66 F (19 C)
Dew Point: 53 F (12 C)
Relative Humidity: 63%
Pressure (altimeter): 30.15 in. Hg (1021 hPa)
ob: LATI 251750Z 36005KT CAVOK 19/12 Q1021 NOSIG
cycle: 18

Station Type Date Time Source
LATI TAF 2019/04/25 18:21 UTC NOAA

TAF TAF LATI 251700Z 2518/2618 VRB04KT CAVOK
TEMPO 2610/2617 32010KT

Example: see airport list